createdAt,value
2022-12-27T00:02:11.834Z,0.5
2022-12-27T00:07:19.970Z,1.1
2022-12-27T00:12:31.324Z,0.5
2022-12-27T00:17:42.083Z,0.5
2022-12-27T00:28:14.537Z,0.8
2022-12-27T00:33:27.528Z,1.3
2022-12-27T00:38:37.689Z,1.1
2022-12-27T00:43:51.886Z,0.8
2022-12-27T00:49:03.286Z,0.9
2022-12-27T00:59:36.657Z,1.2
2022-12-27T01:04:48.157Z,1.6
2022-12-27T01:10:00.333Z,1.9
2022-12-27T01:15:11.987Z,3.4
2022-12-27T01:20:25.927Z,1.2
2022-12-27T01:30:56.132Z,0.7
2022-12-27T01:36:05.539Z,0.8
2022-12-27T01:41:17.785Z,0.6
2022-12-27T01:51:50.521Z,0.5
2022-12-27T02:02:23.483Z,1.3
2022-12-27T02:18:21.229Z,0.9
2022-12-27T02:23:39.794Z,0.2
2022-12-27T02:28:43.635Z,0.1
2022-12-27T02:33:56.184Z,0.1
2022-12-27T02:39:07.670Z,1.8
2022-12-27T02:44:19.922Z,0.7
2022-12-27T02:49:31.319Z,1
2022-12-27T02:54:42.875Z,1.3
2022-12-27T03:05:17.005Z,0.9
2022-12-27T03:10:33.473Z,0.5
2022-12-27T03:15:44.698Z,1.8
2022-12-27T03:20:53.995Z,2
2022-12-27T03:26:05.459Z,0.9
2022-12-27T03:31:17.717Z,0.8
2022-12-27T03:36:29.279Z,2.6
2022-12-27T03:41:39.329Z,1.4
2022-12-27T03:46:51.973Z,1.5
2022-12-27T03:52:03.019Z,1.7
2022-12-27T04:02:36.723Z,2.2
2022-12-27T04:07:47.710Z,2
2022-12-27T04:12:59.231Z,1.7
2022-12-27T04:18:12.482Z,3.6
2022-12-27T04:28:45.273Z,4
2022-12-27T04:50:01.840Z,1.6
2022-12-27T04:55:13.430Z,2.2
2022-12-27T05:00:30.415Z,3
2022-12-27T05:10:58.584Z,4.3
2022-12-27T05:16:10.240Z,2.6
2022-12-27T05:21:20.725Z,2.3
2022-12-27T05:42:34.304Z,2.4
2022-12-27T05:47:45.267Z,2.4
2022-12-27T05:52:56.636Z,5.9
2022-12-27T05:58:08.642Z,5
2022-12-27T06:03:17.947Z,2.3
2022-12-27T06:24:31.886Z,2.5
2022-12-27T06:35:04.932Z,6.1
2022-12-27T06:40:19.215Z,4.7
2022-12-27T06:45:31.344Z,8.2
2022-12-27T06:50:41.864Z,5.9
2022-12-27T07:01:16.122Z,7.8
2022-12-27T07:11:52.287Z,4.7
2022-12-27T07:22:26.677Z,5.3
2022-12-27T07:38:25.881Z,2.3
2022-12-27T07:43:38.418Z,8.3
2022-12-27T07:59:32.871Z,5.8
2022-12-27T08:04:44.642Z,6
2022-12-27T08:09:56.302Z,5.5
2022-12-27T08:20:29.203Z,6.9
2022-12-27T08:36:56.102Z,7.6
2022-12-27T08:57:37.801Z,6.4
2022-12-27T09:08:16.419Z,9.5
2022-12-27T09:13:28.279Z,8
2022-12-27T09:18:41.049Z,5.5
2022-12-27T09:23:52.071Z,11.1
2022-12-27T09:29:07.288Z,6.8
2022-12-27T09:45:02.651Z,6.3
2022-12-27T09:50:13.981Z,15.1
2022-12-27T09:55:25.358Z,6.5
2022-12-27T10:05:59.205Z,5.4
2022-12-27T10:11:14.657Z,11
2022-12-27T10:16:30.785Z,13.9
2022-12-27T10:21:43.622Z,13.4
2022-12-27T10:26:53.295Z,6.3
2022-12-27T10:32:04.568Z,2.1
2022-12-27T10:37:16.315Z,5.2
2022-12-27T10:42:27.919Z,2.9
2022-12-27T10:47:40.153Z,3.7
2022-12-27T10:52:58.008Z,2.8
2022-12-27T11:03:26.589Z,3.1
2022-12-27T11:08:38.671Z,3.5
2022-12-27T11:13:51.077Z,6.3
2022-12-27T11:19:02.086Z,3.3
2022-12-27T11:24:15.103Z,2.5
2022-12-27T11:29:27.231Z,2
2022-12-27T11:34:38.634Z,4.4
2022-12-27T11:39:50.712Z,4.8
2022-12-27T12:01:07.804Z,4.2
2022-12-27T12:11:40.943Z,4.6
2022-12-27T12:16:52.846Z,6.6
2022-12-27T12:22:02.715Z,2.1
2022-12-27T12:32:35.723Z,1.6
2022-12-27T12:37:46.704Z,2.6
2022-12-27T12:42:58.092Z,9.3
2022-12-27T12:48:09.071Z,8.4
2022-12-27T12:53:20.850Z,16
2022-12-27T12:58:37.286Z,2.9
2022-12-27T13:03:49.899Z,2.7
2022-12-27T13:09:03.309Z,1.7
2022-12-27T13:19:36.375Z,1.8
2022-12-27T13:24:53.141Z,5.1
2022-12-27T13:30:09.541Z,1
2022-12-27T13:35:20.673Z,2.1
2022-12-27T13:40:30.889Z,1.5
2022-12-27T13:45:42.590Z,4.7
2022-12-27T13:50:52.628Z,5.6
2022-12-27T13:56:53.201Z,2.2
2022-12-27T14:17:20.371Z,4
2022-12-27T14:22:32.224Z,6.7
2022-12-27T14:27:43.771Z,4.9
2022-12-27T14:32:55.725Z,3.2
2022-12-27T14:43:32.962Z,12.1
2022-12-27T14:48:45.171Z,4
2022-12-27T14:59:19.172Z,14.3
2022-12-27T15:04:35.322Z,22.3
2022-12-27T15:09:45.326Z,7.6
2022-12-27T15:31:01.940Z,7.3
2022-12-27T15:36:12.502Z,16.8
2022-12-27T15:41:24.006Z,5.1
2022-12-27T15:52:01.939Z,19.4
2022-12-27T15:57:16.336Z,5.4
2022-12-27T16:02:29.174Z,9.1
2022-12-27T16:07:45.512Z,5.6
2022-12-27T16:12:56.953Z,5.5
2022-12-27T16:18:07.522Z,8.7
2022-12-27T16:23:19.543Z,6.8
2022-12-27T16:28:30.048Z,9.2
2022-12-27T16:33:44.708Z,11.8
2022-12-27T16:38:57.745Z,31.5
2022-12-27T16:44:12.960Z,40
2022-12-27T16:49:25.162Z,14.3
2022-12-27T16:54:40.995Z,4.9
2022-12-27T17:05:14.096Z,17.8
2022-12-27T17:10:26.480Z,13.2
2022-12-27T17:15:49.892Z,14.5
2022-12-27T17:20:55.506Z,4.5
2022-12-27T17:26:11.703Z,16.1
2022-12-27T17:31:23.579Z,15.2
2022-12-27T17:42:01.839Z,7.4
2022-12-27T17:47:15.558Z,16.8
2022-12-27T17:57:46.294Z,26
2022-12-27T18:02:57.948Z,40
2022-12-27T18:08:09.170Z,35.1
2022-12-27T18:13:19.607Z,28.5
2022-12-27T18:18:31.820Z,23.3
2022-12-27T18:23:42.184Z,18
2022-12-27T18:28:53.591Z,7.4
2022-12-27T18:39:28.579Z,8
2022-12-27T18:44:40.581Z,7.5
2022-12-27T18:49:56.783Z,12.4
2022-12-27T18:55:06.359Z,7.2
2022-12-27T19:00:18.410Z,9
2022-12-27T19:10:51.420Z,13.6
2022-12-27T19:21:25.741Z,10.5
2022-12-27T19:26:34.642Z,7.2
2022-12-27T19:31:52.121Z,11.3
2022-12-27T19:37:02.106Z,16
2022-12-27T19:42:13.976Z,11.6
2022-12-27T19:47:25.500Z,12.2
2022-12-27T20:03:18.802Z,41
2022-12-27T20:08:34.161Z,33.1
2022-12-27T20:13:51.478Z,11.1
2022-12-27T20:19:03.373Z,10.6
2022-12-27T20:24:22.720Z,15.6
2022-12-27T20:29:32.795Z,12.5
2022-12-27T20:40:11.335Z,12
2022-12-27T20:45:38.150Z,8.5
2022-12-27T20:50:51.553Z,8.2
2022-12-27T20:55:57.840Z,8.7
2022-12-27T21:01:15.647Z,13.9
2022-12-27T21:06:23.252Z,12.6
2022-12-27T21:11:32.589Z,8.6
2022-12-27T21:22:07.015Z,8.8
2022-12-27T21:38:00.803Z,11.5
2022-12-27T21:43:12.946Z,6.1
2022-12-27T21:48:24.193Z,3.8
2022-12-27T21:58:57.567Z,6.1
2022-12-27T22:04:10.130Z,3.1
2022-12-27T22:09:21.318Z,5
2022-12-27T22:14:37.324Z,4.6
2022-12-27T22:19:44.785Z,6.3
2022-12-27T22:24:59.348Z,8.2
2022-12-27T22:30:14.685Z,5
2022-12-27T22:35:28.349Z,5
2022-12-27T22:46:01.391Z,6.2
2022-12-27T23:07:15.526Z,4.9
2022-12-27T23:12:26.705Z,5.4
2022-12-27T23:28:21.241Z,7.5
2022-12-27T23:38:52.025Z,5
2022-12-27T23:54:47.599Z,5.5
